Reklama

Seznam meteostanic a jejich METAR

Vyhledat místa podle abecedy:
A B C D E F G H I J K L M N O P Q R S T U V W X Y Z

Filtrovat:

ID stanice:
a/nebo
Název místa (fulltext):
 
Místo (ID)Naposledy načteno 
Šerák (Serak) 19.11.2018 00:00 UTC Zobrazit data
Místo: Šerák
Teplota: -7 °C (pocitová: -21.1 °C)
Vítr: 8 m/s z(e) 100°
Počasí: sněží
Dohlednost: 22 km
Zákl. oblačnosti: 8/8 30 m
Vlhkost: 86%
Svratouch (Svratouch) 19.11.2018 00:00 UTC Zobrazit data
Místo: Svratouch
Teplota: -2 °C (pocitová: -11.1 °C)
Vítr: 4 m/s z(e) 50°
Počasí: sněží
Dohlednost: 35 km
Zákl. oblačnosti: 8/8 930 m
Vlhkost: 47%
Saipan Island (PGSN) 04.11.2018 21:54 UTC Zobrazit METAR
PGSN 042154Z 07011KT 10SM FEW020 28/26 A2991 RMK AO2 SLPNO T02830261 $
Salzburg (LOWS) 19.11.2018 00:50 UTC Zobrazit METAR
LOWS 190050Z AUTO 31005KT 5000 BR FEW006 SCT010 BKN022 00/M01 Q1015
Samara (UWWW) Zatím nenačteno  
San Andres Island (SKSP) 19.11.2018 00:00 UTC Zobrazit METAR
SKSP 190000Z 05012KT 9999 FEW016 SCT080 29/25 A2985
San Jose (MRPV) 19.11.2018 00:00 UTC Zobrazit METAR
MRPV 190000Z 11009KT 9999 FEW030 22/16 A3000 NOSIG
San Juan (TJSJ) 19.11.2018 00:56 UTC Zobrazit METAR
TJSJ 190056Z 00000KT 10SM CLR 27/21 A3003 RMK AO2 SLP167 T02670211
San Salvador (MSLP) 19.11.2018 00:50 UTC Zobrazit METAR
MSLP 190050Z VRB02KT 9999 FEW073 26/24 Q1010 A2984 NOSIG
Sanaa (OYSN) 08.02.2017 13:00 UTC Zobrazit METAR
OYSN 081300Z 03008KT 9999 FEW030 25/M05 Q1022
Santiago (SCEL) 19.11.2018 01:00 UTC Zobrazit METAR
SCEL 190100Z 16006KT CAVOK 23/03 Q1013 NOSIG
Santiago (LEST) 19.11.2018 01:00 UTC Zobrazit METAR
LEST 190100Z 13006KT 6000 FEW032 BKN036 10/09 Q1001 NOSIG
Santo Domingo (MDHE) 08.04.2012 12:00 UTC  
Santorini (LGSR) 18.11.2018 18:50 UTC Zobrazit METAR
LGSR 181850Z 16019KT 9999 SCT025 19/15 Q1012
Sao Tome (FPST) 09.11.2018 17:00 UTC Zobrazit METAR
FPST 091700Z 12008KT 9999 FEW025 SCT110 28/24 Q1011
Sarajevo (LQSA) 19.11.2018 01:00 UTC Zobrazit METAR
LQSA 190100Z 32003KT 280V350 7000 OVC010 M00/M02 Q1012
Saratov (UWSS) 06.03.2017 17:00 UTC Zobrazit METAR
UWSS 061700Z CAVOK 04/00 Q1024 R12/190055 NOSIG RMK QFE756
Sarmellek (LHSM) 18.11.2018 15:45 UTC Zobrazit METAR
LHSM 181545Z 31002KT 9999 FEW040 OVC053 04/00 Q1021
Seinajoki (EFSI) 19.11.2018 00:50 UTC Zobrazit METAR
EFSI 190050Z AUTO 00000KT CAVOK M07/M07 Q1041
Seoul/Incheon (RKSI) 19.11.2018 01:00 UTC Zobrazit METAR
RKSI 190100Z 15002KT 7000 SCT030 BKN080 10/02 Q1023 NOSIG
Seville (LEZL) 19.11.2018 01:00 UTC Zobrazit METAR
LEZL 190100Z AUTO 19008KT 150V230 9000 OVC007/// 14/12 Q1000
Seychelles (FSIA) 19.11.2018 01:00 UTC Zobrazit METAR
FSIA 190100Z 13004KT 080V250 9999 SCT025 27/23 Q1011 NOSIG
Shymkent (UAII) Zatím nenačteno  
Siauliai (EYSA) 18.11.2018 22:50 UTC Zobrazit METAR
EYSA 182250Z 03009KT 9999 OVC017 02/00 Q1030 R14L/09//95 WHT NOSIG
Sibiu (LRSB) 19.11.2018 01:00 UTC Zobrazit METAR
LRSB 190100Z 11005KT 7000 -SNRA SCT004 OVC033 01/M00 Q1014 R27/29//95 TEMPO 5000 -SN
Simferopol' (UKFF) Zatím nenačteno  
Singapore (WSSS) 18.11.2018 22:00 UTC Zobrazit METAR
WSSS 182200Z VRB02KT 9999 FEW016 BKN300 26/24 Q1011 NOSIG
Skopje (LWSK) 19.11.2018 01:00 UTC Zobrazit METAR
LWSK 190100Z 10001KT 5000 BR FEW004 BKN010 OVC030 00/M00 Q1012 R99/2///95 NOSIG
Soderhamn (ESNY) Zatím nenačteno  
Sofia (LBSF) 19.11.2018 01:00 UTC Zobrazit METAR
LBSF 190100Z 02004KT 3500 -SN SCT002 BKN005 OVC017 M00/M01 Q1010 RESN R99/29//95 NOSIG
Sonderborg (EKSB) 18.11.2018 18:50 UTC Zobrazit METAR
EKSB 181850Z 06013KT 9999 BKN023 07/03 Q1033
Split (LDSP) 19.11.2018 01:00 UTC Zobrazit METAR
LDSP 190100Z AUTO 34006KT 310V020 CAVOK 05/M05 Q1010
St. Denis (FMEE) 19.11.2018 01:00 UTC Zobrazit METAR
FMEE 190100Z AUTO 11013KT CAVOK 23/15 Q1015 NOSIG
St. Georges (TGPY) 19.11.2018 01:00 UTC Zobrazit METAR
TGPY 190100Z 08008KT 9999 FEW016 27/24 Q1013 NOSIG
St. Johns (TAPA) 19.11.2018 01:00 UTC Zobrazit METAR
TAPA 190100Z 08011KT 9999 FEW017 SCT036 27/22 Q1016 NOSIG
St. Petersburg (ULLI) Zatím nenačteno  
St. Pierre Island (LFVP) 19.11.2018 01:00 UTC Zobrazit METAR
LFVP 190100Z 31016KT 9999 SCT033 M02/M10 Q1023 NOSIG
Stavanger (ENZV) 19.11.2018 00:50 UTC Zobrazit METAR
ENZV 190050Z 00000KT 9999 BCFG NSC M00/M00 Q1038
Stockholm (ESSA) 19.11.2018 00:50 UTC Zobrazit METAR
ESSA 190050Z 02009KT 9999 OVC021 03/M02 Q1039 R01L/09//95 R08/09//95 R01R/09//95 NOSIG
Strasbourg (LFST) 19.11.2018 01:00 UTC Zobrazit METAR
LFST 190100Z AUTO 02013KT CAVOK 01/M08 Q1017 NOSIG
Stuttgart (EDDS) 19.11.2018 00:50 UTC Zobrazit METAR
EDDS 190050Z 02007KT 340V040 9999 SCT025 BKN042 01/M05 Q1016 NOSIG
Reklama

Počasí na Váš email

Emaily jsou bez reklamy a bez spamu



Odhlásit newsletter

Reklama


Lunární kalendář

  • 23.11.
  • 30.11.
  • 07.12.
  • 15.12.



Reklama


Reklama
Povinné ručení
Reklama



Reklama